Decoded Metar for KAFW (FT WORTH/ALLIANC in TX, USA) (IATA:AFW) | Meteo·Mobile Aviation Weather
aviador You're here:

KAFW Decoded Metar

FT WORTH/ALLIANC in TX, USA
Report Time2019-04-23 16:12:00
UTC Time2019-04-23 16:50:31
Flight Rules vfr VFR
Wind180° at 11 kt
W.Decomp.*RWY 16: 10.7 kt HW 2.5 kt RCW
Visibility9999 m
Phenomena:N/A
Clouds:Scattered 020 Hf
Broken 055 Hf
Broken 085 Hf
Broken 170 Hf
Expected CloudBase > 2,400 ft AGL from Temp-Dew spread
Ceiling5,500 ft
Temp23°C (ISA +10)
Dew Point17°C (69% RH)
AAT21.4°C
QNH1017 hPa
Density Alt1,995 ft
Elevation764 ft
Report Wrong Elevation
Raw Report
KAFW 231612Z 18011KT 7SM SCT020 BKN055 BKN085 BKN170 23/17 A3002
RMK AO2 T02280172=

Extra information for KAFW:More info

Metar Taf Metar & Taf Last 4 Metars F.Rules Stats Wind Profile Meteogram Temp Stats Airport Information Weather charts Add Link Nearby VenuesMetar ALERT Operation Metar Decoded Social comments

AIRNAV info for KAFW